sensor_id;sensor_type;location;lat;lon;timestamp;temperature;humidity
5980;DHT22;3016;50.308;8.258;2022-07-18T00:02:44;13.30;1.00
5980;DHT22;3016;50.308;8.258;2022-07-18T00:05:45;13.30;1.00
5980;DHT22;3016;50.308;8.258;2022-07-18T00:08:46;13.20;1.00
5980;DHT22;3016;50.308;8.258;2022-07-18T00:12:03;13.10;1.00
5980;DHT22;3016;50.308;8.258;2022-07-18T00:15:05;13.10;1.00
5980;DHT22;3016;50.308;8.258;2022-07-18T00:18:08;13.00;1.00
5980;DHT22;3016;50.308;8.258;2022-07-18T00:21:09;13.10;1.00
5980;DHT22;3016;50.308;8.258;2022-07-18T00:24:18;13.00;1.00
5980;DHT22;3016;50.308;8.258;2022-07-18T00:27:29;12.90;1.00
5980;DHT22;3016;50.308;8.258;2022-07-18T00:30:30;12.80;1.00
5980;DHT22;3016;50.308;8.258;2022-07-18T00:33:33;12.80;1.00
5980;DHT22;3016;50.308;8.258;2022-07-18T00:36:35;12.70;1.00
5980;DHT22;3016;50.308;8.258;2022-07-18T00:39:39;12.60;1.00
5980;DHT22;3016;50.308;8.258;2022-07-18T00:42:40;12.50;1.00
5980;DHT22;3016;50.308;8.258;2022-07-18T00:45:47;12.50;1.00
5980;DHT22;3016;50.308;8.258;2022-07-18T00:48:49;12.50;1.00
5980;DHT22;3016;50.308;8.258;2022-07-18T00:51:59;12.50;1.00
5980;DHT22;3016;50.308;8.258;2022-07-18T00:55:07;12.40;1.00
5980;DHT22;3016;50.308;8.258;2022-07-18T00:58:10;12.40;1.00
5980;DHT22;3016;50.308;8.258;2022-07-18T01:01:14;12.30;1.00
5980;DHT22;3016;50.308;8.258;2022-07-18T01:04:33;12.20;1.00
5980;DHT22;3016;50.308;8.258;2022-07-18T01:07:36;12.20;1.00
5980;DHT22;3016;50.308;8.258;2022-07-18T01:10:37;12.20;1.00
5980;DHT22;3016;50.308;8.258;2022-07-18T01:13:44;12.20;1.00
5980;DHT22;3016;50.308;8.258;2022-07-18T01:16:45;12.10;1.00
5980;DHT22;3016;50.308;8.258;2022-07-18T01:19:47;12.10;1.00
5980;DHT22;3016;50.308;8.258;2022-07-18T01:22:48;12.00;1.00
5980;DHT22;3016;50.308;8.258;2022-07-18T01:25:49;12.00;1.00
5980;DHT22;3016;50.308;8.258;2022-07-18T01:28:50;12.00;1.00
5980;DHT22;3016;50.308;8.258;2022-07-18T01:31:51;11.90;1.00
5980;DHT22;3016;50.308;8.258;2022-07-18T01:34:55;11.80;1.00
5980;DHT22;3016;50.308;8.258;2022-07-18T01:37:58;11.80;1.00
5980;DHT22;3016;50.308;8.258;2022-07-18T01:41:01;11.70;1.00
5980;DHT22;3016;50.308;8.258;2022-07-18T01:44:04;11.70;1.00
5980;DHT22;3016;50.308;8.258;2022-07-18T01:47:07;11.70;1.00
5980;DHT22;3016;50.308;8.258;2022-07-18T01:50:13;11.60;1.00
5980;DHT22;3016;50.308;8.258;2022-07-18T01:53:17;11.60;1.00
5980;DHT22;3016;50.308;8.258;2022-07-18T01:56:18;11.50;1.00
5980;DHT22;3016;50.308;8.258;2022-07-18T01:59:19;11.50;1.00
5980;DHT22;3016;50.308;8.258;2022-07-18T02:02:20;11.50;1.00
5980;DHT22;3016;50.308;8.258;2022-07-18T02:05:21;11.50;1.00
5980;DHT22;3016;50.308;8.258;2022-07-18T02:08:22;11.40;1.00
5980;DHT22;3016;50.308;8.258;2022-07-18T02:11:24;11.40;1.00
5980;DHT22;3016;50.308;8.258;2022-07-18T02:14:25;11.30;1.00
5980;DHT22;3016;50.308;8.258;2022-07-18T02:17:27;11.20;1.00
5980;DHT22;3016;50.308;8.258;2022-07-18T02:20:28;11.20;1.00
5980;DHT22;3016;50.308;8.258;2022-07-18T02:23:31;11.30;1.00
5980;DHT22;3016;50.308;8.258;2022-07-18T02:26:50;11.20;1.00
5980;DHT22;3016;50.308;8.258;2022-07-18T02:30:05;11.20;1.00
5980;DHT22;3016;50.308;8.258;2022-07-18T02:33:17;11.10;1.00
5980;DHT22;3016;50.308;8.258;2022-07-18T02:36:28;11.10;1.00
5980;DHT22;3016;50.308;8.258;2022-07-18T02:39:29;11.10;1.00
5980;DHT22;3016;50.308;8.258;2022-07-18T02:42:30;11.10;1.00
5980;DHT22;3016;50.308;8.258;2022-07-18T02:45:32;11.00;1.00
5980;DHT22;3016;50.308;8.258;2022-07-18T02:48:38;10.90;1.00
5980;DHT22;3016;50.308;8.258;2022-07-18T02:51:39;10.90;1.00
5980;DHT22;3016;50.308;8.258;2022-07-18T02:54:40;10.90;1.00
5980;DHT22;3016;50.308;8.258;2022-07-18T02:57:57;10.90;1.00
5980;DHT22;3016;50.308;8.258;2022-07-18T03:00:58;10.80;1.00
5980;DHT22;3016;50.308;8.258;2022-07-18T03:04:01;10.80;1.00
5980;DHT22;3016;50.308;8.258;2022-07-18T03:07:20;10.70;1.00
5980;DHT22;3016;50.308;8.258;2022-07-18T03:10:22;10.70;1.00
5980;DHT22;3016;50.308;8.258;2022-07-18T03:13:32;10.70;1.00
5980;DHT22;3016;50.308;8.258;2022-07-18T03:16:33;10.60;1.00
5980;DHT22;3016;50.308;8.258;2022-07-18T03:19:36;10.60;1.00
5980;DHT22;3016;50.308;8.258;2022-07-18T03:22:38;10.60;1.00
5980;DHT22;3016;50.308;8.258;2022-07-18T03:25:39;10.50;1.00
5980;DHT22;3016;50.308;8.258;2022-07-18T03:28:50;10.50;1.00
5980;DHT22;3016;50.308;8.258;2022-07-18T03:31:51;10.50;1.00
5980;DHT22;3016;50.308;8.258;2022-07-18T03:34:52;10.50;1.00
5980;DHT22;3016;50.308;8.258;2022-07-18T03:37:52;10.40;1.00
5980;DHT22;3016;50.308;8.258;2022-07-18T03:40:53;10.40;1.00
5980;DHT22;3016;50.308;8.258;2022-07-18T03:43:55;10.30;1.00
5980;DHT22;3016;50.308;8.258;2022-07-18T03:46:56;10.30;1.00
5980;DHT22;3016;50.308;8.258;2022-07-18T03:49:56;10.30;1.00
5980;DHT22;3016;50.308;8.258;2022-07-18T03:52:57;10.30;1.00
5980;DHT22;3016;50.308;8.258;2022-07-18T03:56:05;10.30;1.00
5980;DHT22;3016;50.308;8.258;2022-07-18T03:59:19;10.30;1.00
5980;DHT22;3016;50.308;8.258;2022-07-18T04:02:20;10.30;1.00
5980;DHT22;3016;50.308;8.258;2022-07-18T04:05:33;10.30;1.00
5980;DHT22;3016;50.308;8.258;2022-07-18T04:08:34;10.30;1.00
5980;DHT22;3016;50.308;8.258;2022-07-18T04:11:41;10.30;1.00
5980;DHT22;3016;50.308;8.258;2022-07-18T04:14:42;10.30;1.00
5980;DHT22;3016;50.308;8.258;2022-07-18T04:17:43;10.30;1.00
5980;DHT22;3016;50.308;8.258;2022-07-18T04:20:44;10.30;1.00
5980;DHT22;3016;50.308;8.258;2022-07-18T04:24:05;10.30;1.00
5980;DHT22;3016;50.308;8.258;2022-07-18T04:27:06;10.30;1.00
5980;DHT22;3016;50.308;8.258;2022-07-18T04:30:15;10.40;1.00
5980;DHT22;3016;50.308;8.258;2022-07-18T04:33:33;10.50;1.00
5980;DHT22;3016;50.308;8.258;2022-07-18T04:36:33;10.60;1.00
5980;DHT22;3016;50.308;8.258;2022-07-18T04:39:34;10.70;1.00
5980;DHT22;3016;50.308;8.258;2022-07-18T04:42:37;10.70;1.00
5980;DHT22;3016;50.308;8.258;2022-07-18T04:45:38;10.80;1.00
5980;DHT22;3016;50.308;8.258;2022-07-18T04:48:45;10.90;1.00
5980;DHT22;3016;50.308;8.258;2022-07-18T04:51:47;11.00;1.00
5980;DHT22;3016;50.308;8.258;2022-07-18T04:54:48;11.10;1.00
5980;DHT22;3016;50.308;8.258;2022-07-18T04:57:50;11.30;1.00
5980;DHT22;3016;50.308;8.258;2022-07-18T05:00:52;11.30;1.00
5980;DHT22;3016;50.308;8.258;2022-07-18T05:03:53;11.50;1.00
5980;DHT22;3016;50.308;8.258;2022-07-18T05:06:54;11.60;1.00
5980;DHT22;3016;50.308;8.258;2022-07-18T05:09:54;11.70;1.00
5980;DHT22;3016;50.308;8.258;2022-07-18T05:12:55;11.90;1.00
5980;DHT22;3016;50.308;8.258;2022-07-18T05:15:57;12.10;1.00
5980;DHT22;3016;50.308;8.258;2022-07-18T05:18:58;12.30;1.00
5980;DHT22;3016;50.308;8.258;2022-07-18T05:21:58;12.50;1.00
5980;DHT22;3016;50.308;8.258;2022-07-18T05:25:07;12.70;1.00
5980;DHT22;3016;50.308;8.258;2022-07-18T05:28:08;12.80;1.00
5980;DHT22;3016;50.308;8.258;2022-07-18T05:31:09;13.00;1.00
5980;DHT22;3016;50.308;8.258;2022-07-18T05:34:10;13.20;1.00
5980;DHT22;3016;50.308;8.258;2022-07-18T05:37:11;13.40;1.00
5980;DHT22;3016;50.308;8.258;2022-07-18T05:40:13;13.60;1.00
5980;DHT22;3016;50.308;8.258;2022-07-18T05:43:14;13.90;1.00
5980;DHT22;3016;50.308;8.258;2022-07-18T05:46:15;14.00;1.00
5980;DHT22;3016;50.308;8.258;2022-07-18T05:49:16;14.30;1.00
5980;DHT22;3016;50.308;8.258;2022-07-18T05:52:16;14.60;1.00
5980;DHT22;3016;50.308;8.258;2022-07-18T05:55:17;14.80;1.00
5980;DHT22;3016;50.308;8.258;2022-07-18T05:58:18;15.00;1.00
5980;DHT22;3016;50.308;8.258;2022-07-18T06:01:19;15.30;1.00
5980;DHT22;3016;50.308;8.258;2022-07-18T06:04:20;15.60;1.00
5980;DHT22;3016;50.308;8.258;2022-07-18T06:07:20;15.80;1.00
5980;DHT22;3016;50.308;8.258;2022-07-18T06:10:23;16.00;1.00
5980;DHT22;3016;50.308;8.258;2022-07-18T06:13:25;16.20;1.00
5980;DHT22;3016;50.308;8.258;2022-07-18T06:16:25;16.40;1.00
5980;DHT22;3016;50.308;8.258;2022-07-18T06:19:27;16.70;1.00
5980;DHT22;3016;50.308;8.258;2022-07-18T06:22:28;17.00;1.00
5980;DHT22;3016;50.308;8.258;2022-07-18T06:25:29;17.20;1.00
5980;DHT22;3016;50.308;8.258;2022-07-18T06:28:29;17.40;1.00
5980;DHT22;3016;50.308;8.258;2022-07-18T06:31:30;17.70;1.00
5980;DHT22;3016;50.308;8.258;2022-07-18T06:34:31;18.10;1.00
5980;DHT22;3016;50.308;8.258;2022-07-18T06:37:31;18.50;1.00
5980;DHT22;3016;50.308;8.258;2022-07-18T06:40:32;18.70;1.00
5980;DHT22;3016;50.308;8.258;2022-07-18T06:43:33;19.00;1.00
5980;DHT22;3016;50.308;8.258;2022-07-18T06:46:34;19.20;1.00
5980;DHT22;3016;50.308;8.258;2022-07-18T06:49:36;19.50;1.00
5980;DHT22;3016;50.308;8.258;2022-07-18T06:52:39;19.80;1.00
5980;DHT22;3016;50.308;8.258;2022-07-18T06:55:54;20.20;1.00
5980;DHT22;3016;50.308;8.258;2022-07-18T06:59:02;20.40;1.00
5980;DHT22;3016;50.308;8.258;2022-07-18T07:02:04;20.70;1.00
5980;DHT22;3016;50.308;8.258;2022-07-18T07:05:07;20.90;1.00
5980;DHT22;3016;50.308;8.258;2022-07-18T07:08:08;21.10;1.00
5980;DHT22;3016;50.308;8.258;2022-07-18T07:11:09;21.20;1.00
5980;DHT22;3016;50.308;8.258;2022-07-18T07:14:09;21.40;1.00
5980;DHT22;3016;50.308;8.258;2022-07-18T07:17:10;21.60;1.00
5980;DHT22;3016;50.308;8.258;2022-07-18T07:20:12;21.80;1.00
5980;DHT22;3016;50.308;8.258;2022-07-18T07:23:13;22.00;1.00
5980;DHT22;3016;50.308;8.258;2022-07-18T07:26:14;22.20;1.00
5980;DHT22;3016;50.308;8.258;2022-07-18T07:29:15;22.40;1.00
5980;DHT22;3016;50.308;8.258;2022-07-18T07:32:16;22.30;1.00
5980;DHT22;3016;50.308;8.258;2022-07-18T07:35:29;22.50;1.00
5980;DHT22;3016;50.308;8.258;2022-07-18T07:38:38;22.70;1.00
5980;DHT22;3016;50.308;8.258;2022-07-18T07:41:41;23.00;1.00
5980;DHT22;3016;50.308;8.258;2022-07-18T07:44:42;23.10;1.00
5980;DHT22;3016;50.308;8.258;2022-07-18T07:47:43;23.30;1.00
5980;DHT22;3016;50.308;8.258;2022-07-18T07:50:44;23.30;1.00
5980;DHT22;3016;50.308;8.258;2022-07-18T07:53:51;23.60;1.00
5980;DHT22;3016;50.308;8.258;2022-07-18T07:56:52;23.90;1.00
5980;DHT22;3016;50.308;8.258;2022-07-18T07:59:54;24.30;1.00
5980;DHT22;3016;50.308;8.258;2022-07-18T08:02:57;24.60;1.00
5980;DHT22;3016;50.308;8.258;2022-07-18T08:06:03;24.90;1.00
5980;DHT22;3016;50.308;8.258;2022-07-18T08:09:04;25.20;1.00
5980;DHT22;3016;50.308;8.258;2022-07-18T08:12:09;25.50;1.00
5980;DHT22;3016;50.308;8.258;2022-07-18T08:15:10;25.70;1.00
5980;DHT22;3016;50.308;8.258;2022-07-18T08:18:16;26.00;1.00
5980;DHT22;3016;50.308;8.258;2022-07-18T08:21:17;26.20;1.00
5980;DHT22;3016;50.308;8.258;2022-07-18T08:24:20;26.20;1.00
5980;DHT22;3016;50.308;8.258;2022-07-18T08:27:40;26.30;1.00
5980;DHT22;3016;50.308;8.258;2022-07-18T08:30:49;26.40;1.00
5980;DHT22;3016;50.308;8.258;2022-07-18T08:33:57;26.70;1.00
5980;DHT22;3016;50.308;8.258;2022-07-18T08:36:58;27.20;1.00
5980;DHT22;3016;50.308;8.258;2022-07-18T08:39:58;27.50;1.00
5980;DHT22;3016;50.308;8.258;2022-07-18T08:42:59;27.90;1.00
5980;DHT22;3016;50.308;8.258;2022-07-18T08:46:05;28.20;1.00
5980;DHT22;3016;50.308;8.258;2022-07-18T08:49:07;28.50;1.00
5980;DHT22;3016;50.308;8.258;2022-07-18T08:52:08;28.50;1.00
5980;DHT22;3016;50.308;8.258;2022-07-18T08:55:09;28.80;1.00
5980;DHT22;3016;50.308;8.258;2022-07-18T08:58:11;29.00;1.00
5980;DHT22;3016;50.308;8.258;2022-07-18T09:01:12;29.00;1.00
5980;DHT22;3016;50.308;8.258;2022-07-18T09:07:38;29.20;1.00
5980;DHT22;3016;50.308;8.258;2022-07-18T09:10:56;29.50;1.00
5980;DHT22;3016;50.308;8.258;2022-07-18T09:13:58;29.70;1.00
5980;DHT22;3016;50.308;8.258;2022-07-18T09:17:03;29.40;1.00
5980;DHT22;3016;50.308;8.258;2022-07-18T09:20:11;29.50;1.00
5980;DHT22;3016;50.308;8.258;2022-07-18T09:23:17;29.70;1.00
5980;DHT22;3016;50.308;8.258;2022-07-18T09:26:38;29.90;1.00
5980;DHT22;3016;50.308;8.258;2022-07-18T09:29:40;30.20;1.00
5980;DHT22;3016;50.308;8.258;2022-07-18T09:32:46;30.30;1.00
5980;DHT22;3016;50.308;8.258;2022-07-18T09:35:53;30.90;1.00
5980;DHT22;3016;50.308;8.258;2022-07-18T09:38:55;31.40;1.00
5980;DHT22;3016;50.308;8.258;2022-07-18T09:42:13;31.00;1.00
5980;DHT22;3016;50.308;8.258;2022-07-18T09:45:22;31.20;1.00
5980;DHT22;3016;50.308;8.258;2022-07-18T09:48:30;31.30;1.00
5980;DHT22;3016;50.308;8.258;2022-07-18T09:51:31;31.60;1.00
5980;DHT22;3016;50.308;8.258;2022-07-18T09:54:50;31.70;1.00
5980;DHT22;3016;50.308;8.258;2022-07-18T09:58:07;31.80;1.00
5980;DHT22;3016;50.308;8.258;2022-07-18T10:01:10;31.80;1.00
5980;DHT22;3016;50.308;8.258;2022-07-18T10:04:10;32.30;1.00
5980;DHT22;3016;50.308;8.258;2022-07-18T10:07:11;32.60;1.00
5980;DHT22;3016;50.308;8.258;2022-07-18T10:10:15;32.50;1.00
5980;DHT22;3016;50.308;8.258;2022-07-18T10:13:17;32.60;1.00
5980;DHT22;3016;50.308;8.258;2022-07-18T10:16:18;32.10;1.00
5980;DHT22;3016;50.308;8.258;2022-07-18T10:19:19;31.90;1.00
5980;DHT22;3016;50.308;8.258;2022-07-18T10:22:20;31.80;1.00
5980;DHT22;3016;50.308;8.258;2022-07-18T10:25:22;31.80;1.00
5980;DHT22;3016;50.308;8.258;2022-07-18T10:28:24;32.20;1.00
5980;DHT22;3016;50.308;8.258;2022-07-18T10:34:36;32.50;1.00
5980;DHT22;3016;50.308;8.258;2022-07-18T10:37:37;32.40;1.00
5980;DHT22;3016;50.308;8.258;2022-07-18T10:47:28;32.20;1.00
5980;DHT22;3016;50.308;8.258;2022-07-18T10:51:02;32.30;1.00
5980;DHT22;3016;50.308;8.258;2022-07-18T10:54:08;32.40;1.00
5980;DHT22;3016;50.308;8.258;2022-07-18T10:57:10;32.50;1.00
5980;DHT22;3016;50.308;8.258;2022-07-18T11:00:28;32.60;1.00
5980;DHT22;3016;50.308;8.258;2022-07-18T11:03:34;32.80;1.00
5980;DHT22;3016;50.308;8.258;2022-07-18T11:07:08;33.20;1.00
5980;DHT22;3016;50.308;8.258;2022-07-18T11:10:10;33.00;1.00
5980;DHT22;3016;50.308;8.258;2022-07-18T11:16:30;32.90;1.00
5980;DHT22;3016;50.308;8.258;2022-07-18T11:19:32;33.00;1.00
5980;DHT22;3016;50.308;8.258;2022-07-18T11:22:34;33.10;1.00
5980;DHT22;3016;50.308;8.258;2022-07-18T11:25:35;33.20;1.00
5980;DHT22;3016;50.308;8.258;2022-07-18T11:28:36;33.20;1.00
5980;DHT22;3016;50.308;8.258;2022-07-18T11:31:50;33.20;1.00
5980;DHT22;3016;50.308;8.258;2022-07-18T11:34:52;33.00;1.00
5980;DHT22;3016;50.308;8.258;2022-07-18T11:37:53;32.90;1.00
5980;DHT22;3016;50.308;8.258;2022-07-18T11:40:55;33.20;1.00
5980;DHT22;3016;50.308;8.258;2022-07-18T11:43:57;32.80;1.00
5980;DHT22;3016;50.308;8.258;2022-07-18T11:47:09;32.80;1.00
5980;DHT22;3016;50.308;8.258;2022-07-18T11:50:11;32.80;1.00
5980;DHT22;3016;50.308;8.258;2022-07-18T11:53:13;32.90;1.00
5980;DHT22;3016;50.308;8.258;2022-07-18T11:59:20;33.30;1.00
5980;DHT22;3016;50.308;8.258;2022-07-18T12:02:22;33.30;1.00
5980;DHT22;3016;50.308;8.258;2022-07-18T12:05:55;33.10;1.00
5980;DHT22;3016;50.308;8.258;2022-07-18T12:08:57;32.80;1.00
5980;DHT22;3016;50.308;8.258;2022-07-18T12:12:14;32.80;1.00
5980;DHT22;3016;50.308;8.258;2022-07-18T12:15:16;32.80;1.00
5980;DHT22;3016;50.308;8.258;2022-07-18T12:18:28;32.90;1.00
5980;DHT22;3016;50.308;8.258;2022-07-18T12:21:40;33.10;1.00
5980;DHT22;3016;50.308;8.258;2022-07-18T12:24:41;33.00;1.00
5980;DHT22;3016;50.308;8.258;2022-07-18T12:27:50;33.00;1.00
5980;DHT22;3016;50.308;8.258;2022-07-18T12:30:50;32.90;1.00
5980;DHT22;3016;50.308;8.258;2022-07-18T12:34:08;32.80;1.00
5980;DHT22;3016;50.308;8.258;2022-07-18T12:37:10;33.10;1.00
5980;DHT22;3016;50.308;8.258;2022-07-18T12:40:11;33.30;1.00
5980;DHT22;3016;50.308;8.258;2022-07-18T12:43:16;33.30;1.00
5980;DHT22;3016;50.308;8.258;2022-07-18T12:46:27;33.60;1.00
5980;DHT22;3016;50.308;8.258;2022-07-18T12:49:28;34.10;1.00
5980;DHT22;3016;50.308;8.258;2022-07-18T12:52:28;34.10;1.00
5980;DHT22;3016;50.308;8.258;2022-07-18T12:55:30;34.20;1.00
5980;DHT22;3016;50.308;8.258;2022-07-18T12:58:30;34.30;1.00
5980;DHT22;3016;50.308;8.258;2022-07-18T13:01:31;34.30;1.00
5980;DHT22;3016;50.308;8.258;2022-07-18T13:04:32;34.40;1.00
5980;DHT22;3016;50.308;8.258;2022-07-18T13:07:33;34.40;1.00
5980;DHT22;3016;50.308;8.258;2022-07-18T13:10:34;34.40;1.00
5980;DHT22;3016;50.308;8.258;2022-07-18T13:13:35;34.50;1.00
5980;DHT22;3016;50.308;8.258;2022-07-18T13:16:35;34.40;1.00
5980;DHT22;3016;50.308;8.258;2022-07-18T13:19:36;34.20;1.00
5980;DHT22;3016;50.308;8.258;2022-07-18T13:22:44;34.10;1.00
5980;DHT22;3016;50.308;8.258;2022-07-18T13:25:44;34.10;1.00
5980;DHT22;3016;50.308;8.258;2022-07-18T13:28:45;34.30;1.00
5980;DHT22;3016;50.308;8.258;2022-07-18T13:31:46;34.40;1.00
5980;DHT22;3016;50.308;8.258;2022-07-18T13:34:48;34.70;1.00
5980;DHT22;3016;50.308;8.258;2022-07-18T13:37:49;34.80;1.00
5980;DHT22;3016;50.308;8.258;2022-07-18T13:40:49;35.00;1.00
5980;DHT22;3016;50.308;8.258;2022-07-18T13:43:52;35.10;1.00
5980;DHT22;3016;50.308;8.258;2022-07-18T13:46:53;35.30;1.00
5980;DHT22;3016;50.308;8.258;2022-07-18T13:49:53;35.70;1.00
5980;DHT22;3016;50.308;8.258;2022-07-18T13:52:54;36.20;1.00
5980;DHT22;3016;50.308;8.258;2022-07-18T13:55:55;36.40;1.00
5980;DHT22;3016;50.308;8.258;2022-07-18T13:58:56;36.60;1.00
5980;DHT22;3016;50.308;8.258;2022-07-18T14:01:57;36.60;1.00
5980;DHT22;3016;50.308;8.258;2022-07-18T14:04:57;36.40;1.00
5980;DHT22;3016;50.308;8.258;2022-07-18T14:07:58;36.20;1.00
5980;DHT22;3016;50.308;8.258;2022-07-18T14:10:59;35.90;1.00
5980;DHT22;3016;50.308;8.258;2022-07-18T14:14:00;35.70;1.00
5980;DHT22;3016;50.308;8.258;2022-07-18T14:17:02;35.60;1.00
5980;DHT22;3016;50.308;8.258;2022-07-18T14:20:03;35.70;1.00
5980;DHT22;3016;50.308;8.258;2022-07-18T14:23:06;35.70;1.00
5980;DHT22;3016;50.308;8.258;2022-07-18T14:26:07;35.80;1.00
5980;DHT22;3016;50.308;8.258;2022-07-18T14:29:07;35.80;1.00
5980;DHT22;3016;50.308;8.258;2022-07-18T14:32:08;35.60;1.00
5980;DHT22;3016;50.308;8.258;2022-07-18T14:35:09;35.50;1.00
5980;DHT22;3016;50.308;8.258;2022-07-18T14:38:10;35.50;1.00
5980;DHT22;3016;50.308;8.258;2022-07-18T14:41:11;35.70;1.00
5980;DHT22;3016;50.308;8.258;2022-07-18T14:44:12;35.90;1.00
5980;DHT22;3016;50.308;8.258;2022-07-18T14:47:13;36.10;1.00
5980;DHT22;3016;50.308;8.258;2022-07-18T14:50:13;36.10;1.00
5980;DHT22;3016;50.308;8.258;2022-07-18T14:53:14;36.30;1.00
5980;DHT22;3016;50.308;8.258;2022-07-18T14:56:15;36.90;1.00
5980;DHT22;3016;50.308;8.258;2022-07-18T14:59:16;37.70;1.00
5980;DHT22;3016;50.308;8.258;2022-07-18T15:02:16;38.00;1.00
5980;DHT22;3016;50.308;8.258;2022-07-18T15:05:17;38.00;1.00
5980;DHT22;3016;50.308;8.258;2022-07-18T15:08:18;37.60;1.00
5980;DHT22;3016;50.308;8.258;2022-07-18T15:11:19;37.10;1.00
5980;DHT22;3016;50.308;8.258;2022-07-18T15:14:23;36.80;1.00
5980;DHT22;3016;50.308;8.258;2022-07-18T15:17:24;36.60;1.00
5980;DHT22;3016;50.308;8.258;2022-07-18T15:20:25;36.70;1.00
5980;DHT22;3016;50.308;8.258;2022-07-18T15:23:26;36.60;1.00
5980;DHT22;3016;50.308;8.258;2022-07-18T15:26:27;36.00;1.00
5980;DHT22;3016;50.308;8.258;2022-07-18T15:29:27;35.60;1.00
5980;DHT22;3016;50.308;8.258;2022-07-18T15:32:28;35.60;1.00
5980;DHT22;3016;50.308;8.258;2022-07-18T15:35:29;35.30;1.00
5980;DHT22;3016;50.308;8.258;2022-07-18T15:38:29;35.50;1.00
5980;DHT22;3016;50.308;8.258;2022-07-18T15:41:30;35.90;1.00
5980;DHT22;3016;50.308;8.258;2022-07-18T15:44:31;36.40;1.00
5980;DHT22;3016;50.308;8.258;2022-07-18T15:47:37;36.40;1.00
5980;DHT22;3016;50.308;8.258;2022-07-18T15:50:38;36.00;1.00
5980;DHT22;3016;50.308;8.258;2022-07-18T15:53:39;35.70;1.00
5980;DHT22;3016;50.308;8.258;2022-07-18T15:56:40;35.90;1.00
5980;DHT22;3016;50.308;8.258;2022-07-18T15:59:41;35.80;1.00
5980;DHT22;3016;50.308;8.258;2022-07-18T16:02:42;35.80;1.00
5980;DHT22;3016;50.308;8.258;2022-07-18T16:05:42;35.70;1.00
5980;DHT22;3016;50.308;8.258;2022-07-18T16:08:43;35.80;1.00
5980;DHT22;3016;50.308;8.258;2022-07-18T16:11:44;35.80;1.00
5980;DHT22;3016;50.308;8.258;2022-07-18T16:14:45;35.80;1.00
5980;DHT22;3016;50.308;8.258;2022-07-18T16:17:45;35.60;1.00
5980;DHT22;3016;50.308;8.258;2022-07-18T16:20:46;35.50;1.00
5980;DHT22;3016;50.308;8.258;2022-07-18T16:23:47;35.20;1.00
5980;DHT22;3016;50.308;8.258;2022-07-18T16:26:47;35.20;1.00
5980;DHT22;3016;50.308;8.258;2022-07-18T16:29:48;35.30;1.00
5980;DHT22;3016;50.308;8.258;2022-07-18T16:32:49;35.30;1.00
5980;DHT22;3016;50.308;8.258;2022-07-18T16:35:49;35.20;1.00
5980;DHT22;3016;50.308;8.258;2022-07-18T16:38:50;35.10;1.00
5980;DHT22;3016;50.308;8.258;2022-07-18T16:41:51;34.90;1.00
5980;DHT22;3016;50.308;8.258;2022-07-18T16:44:54;34.80;1.00
5980;DHT22;3016;50.308;8.258;2022-07-18T16:47:55;35.00;1.00
5980;DHT22;3016;50.308;8.258;2022-07-18T16:50:56;35.10;1.00
5980;DHT22;3016;50.308;8.258;2022-07-18T16:53:58;35.40;1.00
5980;DHT22;3016;50.308;8.258;2022-07-18T16:57:02;35.70;1.00
5980;DHT22;3016;50.308;8.258;2022-07-18T17:00:07;35.80;1.00
5980;DHT22;3016;50.308;8.258;2022-07-18T17:03:10;35.70;1.00
5980;DHT22;3016;50.308;8.258;2022-07-18T17:06:10;35.90;1.00
5980;DHT22;3016;50.308;8.258;2022-07-18T17:09:13;36.10;1.00
5980;DHT22;3016;50.308;8.258;2022-07-18T17:12:15;36.10;1.00
5980;DHT22;3016;50.308;8.258;2022-07-18T17:15:18;36.10;1.00
5980;DHT22;3016;50.308;8.258;2022-07-18T17:18:19;35.70;1.00
5980;DHT22;3016;50.308;8.258;2022-07-18T17:21:21;35.50;1.00
5980;DHT22;3016;50.308;8.258;2022-07-18T17:24:22;35.40;1.00
5980;DHT22;3016;50.308;8.258;2022-07-18T17:27:23;35.30;1.00
5980;DHT22;3016;50.308;8.258;2022-07-18T17:30:24;35.40;1.00
5980;DHT22;3016;50.308;8.258;2022-07-18T17:33:25;35.60;1.00
5980;DHT22;3016;50.308;8.258;2022-07-18T17:36:28;36.00;1.00
5980;DHT22;3016;50.308;8.258;2022-07-18T17:39:32;36.30;1.00
5980;DHT22;3016;50.308;8.258;2022-07-18T17:46:52;37.50;1.00
5980;DHT22;3016;50.308;8.258;2022-07-18T17:49:54;38.00;1.00
5980;DHT22;3016;50.308;8.258;2022-07-18T17:52:54;38.30;1.00
5980;DHT22;3016;50.308;8.258;2022-07-18T17:55:57;38.40;1.00
5980;DHT22;3016;50.308;8.258;2022-07-18T17:58:57;39.00;1.00
5980;DHT22;3016;50.308;8.258;2022-07-18T18:01:58;38.90;1.00
5980;DHT22;3016;50.308;8.258;2022-07-18T18:04:59;38.30;1.00
5980;DHT22;3016;50.308;8.258;2022-07-18T18:08:00;38.20;1.00
5980;DHT22;3016;50.308;8.258;2022-07-18T18:11:01;37.60;1.00
5980;DHT22;3016;50.308;8.258;2022-07-18T18:14:02;36.70;1.00
5980;DHT22;3016;50.308;8.258;2022-07-18T18:17:04;35.80;1.00
5980;DHT22;3016;50.308;8.258;2022-07-18T18:20:05;35.20;1.00
5980;DHT22;3016;50.308;8.258;2022-07-18T18:23:06;34.90;1.00
5980;DHT22;3016;50.308;8.258;2022-07-18T18:26:07;34.40;1.00
5980;DHT22;3016;50.308;8.258;2022-07-18T18:29:08;33.90;1.00
5980;DHT22;3016;50.308;8.258;2022-07-18T18:32:09;33.30;1.00
5980;DHT22;3016;50.308;8.258;2022-07-18T18:35:10;32.70;1.00
5980;DHT22;3016;50.308;8.258;2022-07-18T18:38:11;32.20;1.00
5980;DHT22;3016;50.308;8.258;2022-07-18T18:41:12;31.60;1.00
5980;DHT22;3016;50.308;8.258;2022-07-18T18:44:13;31.20;1.00
5980;DHT22;3016;50.308;8.258;2022-07-18T18:47:14;30.70;1.00
5980;DHT22;3016;50.308;8.258;2022-07-18T18:50:15;30.40;1.00
5980;DHT22;3016;50.308;8.258;2022-07-18T18:53:15;30.00;1.00
5980;DHT22;3016;50.308;8.258;2022-07-18T18:56:16;29.70;1.00
5980;DHT22;3016;50.308;8.258;2022-07-18T18:59:17;29.30;1.00
5980;DHT22;3016;50.308;8.258;2022-07-18T19:02:17;28.90;1.00
5980;DHT22;3016;50.308;8.258;2022-07-18T19:05:20;28.50;1.00
5980;DHT22;3016;50.308;8.258;2022-07-18T19:08:22;28.10;1.00
5980;DHT22;3016;50.308;8.258;2022-07-18T19:11:23;27.80;1.00
5980;DHT22;3016;50.308;8.258;2022-07-18T19:14:24;27.50;1.00
5980;DHT22;3016;50.308;8.258;2022-07-18T19:17:25;27.20;1.00
5980;DHT22;3016;50.308;8.258;2022-07-18T19:20:27;26.80;1.00
5980;DHT22;3016;50.308;8.258;2022-07-18T19:23:28;26.60;1.00
5980;DHT22;3016;50.308;8.258;2022-07-18T19:26:28;26.30;1.00
5980;DHT22;3016;50.308;8.258;2022-07-18T19:29:29;26.10;1.00
5980;DHT22;3016;50.308;8.258;2022-07-18T19:32:30;25.80;1.00
5980;DHT22;3016;50.308;8.258;2022-07-18T19:35:30;25.50;1.00
5980;DHT22;3016;50.308;8.258;2022-07-18T19:38:31;25.30;1.00
5980;DHT22;3016;50.308;8.258;2022-07-18T19:41:32;25.10;1.00
5980;DHT22;3016;50.308;8.258;2022-07-18T19:44:33;24.90;1.00
5980;DHT22;3016;50.308;8.258;2022-07-18T19:47:34;24.60;1.00
5980;DHT22;3016;50.308;8.258;2022-07-18T19:50:35;24.40;1.00
5980;DHT22;3016;50.308;8.258;2022-07-18T19:53:35;24.30;1.00
5980;DHT22;3016;50.308;8.258;2022-07-18T19:56:36;24.10;1.00
5980;DHT22;3016;50.308;8.258;2022-07-18T19:59:37;23.90;1.00
5980;DHT22;3016;50.308;8.258;2022-07-18T20:02:38;23.70;1.00
5980;DHT22;3016;50.308;8.258;2022-07-18T20:05:39;23.60;1.00
5980;DHT22;3016;50.308;8.258;2022-07-18T20:08:39;23.40;1.00
5980;DHT22;3016;50.308;8.258;2022-07-18T20:11:40;23.20;1.00
5980;DHT22;3016;50.308;8.258;2022-07-18T20:14:41;23.10;1.00
5980;DHT22;3016;50.308;8.258;2022-07-18T20:17:42;22.80;1.00
5980;DHT22;3016;50.308;8.258;2022-07-18T20:20:42;22.60;1.00
5980;DHT22;3016;50.308;8.258;2022-07-18T20:23:43;22.40;1.00
5980;DHT22;3016;50.308;8.258;2022-07-18T20:26:44;22.30;1.00
5980;DHT22;3016;50.308;8.258;2022-07-18T20:29:44;22.10;1.00
5980;DHT22;3016;50.308;8.258;2022-07-18T20:32:46;22.00;1.00
5980;DHT22;3016;50.308;8.258;2022-07-18T20:35:46;21.80;1.00
5980;DHT22;3016;50.308;8.258;2022-07-18T20:38:47;21.70;1.00